createdAt,value
2022-11-27T00:00:09.038Z,13.43
2022-11-27T00:02:55.555Z,19.37
2022-11-27T00:05:52.819Z,17.77
2022-11-27T00:08:39.277Z,16.97
2022-11-27T00:11:27.866Z,15.87
2022-11-27T00:14:16.157Z,15.33
2022-11-27T00:17:02.590Z,14.97
2022-11-27T00:19:49.444Z,17.23
2022-11-27T00:22:37.815Z,17.83
2022-11-27T00:25:24.415Z,20.07
2022-11-27T00:28:10.798Z,17.23
2022-11-27T00:30:59.759Z,15.70
2022-11-27T00:33:47.407Z,14.70
2022-11-27T00:36:35.385Z,18.90
2022-11-27T00:39:23.100Z,15.53
2022-11-27T00:42:09.741Z,16.73
2022-11-27T00:44:56.227Z,18.00
2022-11-27T00:47:42.716Z,18.00
2022-11-27T00:50:31.847Z,14.00
2022-11-27T00:53:18.588Z,17.93
2022-11-27T00:56:06.929Z,15.27
2022-11-27T00:58:54.144Z,16.27
2022-11-27T01:01:42.666Z,17.13
2022-11-27T01:04:30.344Z,15.83
2022-11-27T01:07:16.960Z,14.97
2022-11-27T01:10:03.964Z,18.40
2022-11-27T01:12:51.876Z,16.20
2022-11-27T01:15:38.647Z,14.67
2022-11-27T01:18:25.065Z,13.30
2022-11-27T01:21:13.390Z,13.30
2022-11-27T01:24:00.682Z,14.30
2022-11-27T01:26:47.250Z,12.87
2022-11-27T01:29:35.335Z,11.67
2022-11-27T01:32:22.126Z,11.47
2022-11-27T01:35:09.835Z,10.57
2022-11-27T01:37:56.347Z,10.07
2022-11-27T01:40:43.066Z,11.53
2022-11-27T01:43:41.020Z,12.90
2022-11-27T01:46:37.410Z,10.63
2022-11-27T01:49:30.345Z,8.30
2022-11-27T01:52:20.893Z,9.27
2022-11-27T01:55:13.250Z,6.90
2022-11-27T01:58:02.908Z,10.47
2022-11-27T02:00:49.531Z,12.27
2022-11-27T02:03:38.110Z,10.07
2022-11-27T02:06:25.426Z,9.30
2022-11-27T02:09:12.163Z,10.63
2022-11-27T02:12:06.987Z,10.97
2022-11-27T02:15:02.026Z,8.43
2022-11-27T02:17:54.657Z,9.40
2022-11-27T02:20:50.012Z,11.53
2022-11-27T02:24:31.292Z,10.53
2022-11-27T02:27:33.641Z,11.20
2022-11-27T02:30:21.633Z,9.03
2022-11-27T02:33:12.172Z,9.37
2022-11-27T02:36:04.792Z,10.50
2022-11-27T02:38:54.859Z,7.77
2022-11-27T02:41:49.580Z,7.37
2022-11-27T02:44:40.301Z,8.67
2022-11-27T02:47:31.184Z,11.17
2022-11-27T02:50:21.751Z,12.97
2022-11-27T02:53:13.363Z,10.90
2022-11-27T02:56:01.586Z,10.23
2022-11-27T02:58:50.111Z,13.00
2022-11-27T03:01:42.584Z,8.70
2022-11-27T03:04:34.780Z,12.30
2022-11-27T03:07:26.759Z,9.50
2022-11-27T03:10:19.956Z,8.77
2022-11-27T03:13:06.775Z,8.77
2022-11-27T03:16:00.658Z,8.57
2022-11-27T03:18:55.717Z,10.37
2022-11-27T03:21:46.361Z,11.50
2022-11-27T03:24:35.856Z,7.17
2022-11-27T03:27:27.891Z,9.77
2022-11-27T03:30:15.459Z,9.63
2022-11-27T03:33:03.235Z,9.47
2022-11-27T03:35:49.727Z,9.43
2022-11-27T03:38:37.610Z,10.97
2022-11-27T03:41:33.435Z,9.73
2022-11-27T03:44:27.459Z,12.00
2022-11-27T03:47:23.614Z,11.33
2022-11-27T03:50:22.675Z,9.03
2022-11-27T03:53:16.375Z,10.23
2022-11-27T03:56:13.042Z,9.07
2022-11-27T03:59:03.987Z,9.80
2022-11-27T04:01:50.733Z,9.57
2022-11-27T04:04:37.644Z,9.67
2022-11-27T04:07:24.603Z,10.87
2022-11-27T04:10:12.718Z,10.07
2022-11-27T04:13:00.391Z,12.50
2022-11-27T04:15:47.125Z,11.03
2022-11-27T04:18:33.764Z,13.00
2022-11-27T04:21:20.589Z,9.90
2022-11-27T04:24:07.704Z,9.53
2022-11-27T04:26:54.202Z,11.10
2022-11-27T04:29:42.018Z,10.03
2022-11-27T04:32:28.630Z,13.80
2022-11-27T04:35:15.526Z,11.00
2022-11-27T04:38:01.980Z,11.63
2022-11-27T04:40:48.955Z,12.13
2022-11-27T04:43:35.743Z,12.47
2022-11-27T04:46:23.739Z,11.20
2022-11-27T04:49:11.211Z,11.60
2022-11-27T04:51:57.728Z,10.03
2022-11-27T04:54:44.456Z,11.80
2022-11-27T04:57:30.880Z,10.13
2022-11-27T05:00:17.893Z,10.17
2022-11-27T05:03:05.932Z,12.20
2022-11-27T05:05:56.919Z,13.00
2022-11-27T05:08:43.553Z,11.63
2022-11-27T05:11:30.838Z,11.03
2022-11-27T05:14:18.197Z,10.37
2022-11-27T05:17:05.443Z,11.03
2022-11-27T05:19:53.124Z,11.07
2022-11-27T05:22:39.949Z,11.97
2022-11-27T05:25:26.970Z,10.07
2022-11-27T05:28:13.526Z,9.93
2022-11-27T05:30:59.936Z,11.63
2022-11-27T05:33:46.487Z,11.23
2022-11-27T05:36:36.178Z,13.70
2022-11-27T05:39:22.840Z,14.77
2022-11-27T05:42:09.532Z,10.57
2022-11-27T05:44:58.524Z,13.00
2022-11-27T05:47:45.674Z,11.00
2022-11-27T05:50:32.190Z,10.60
2022-11-27T05:53:20.145Z,11.07
2022-11-27T05:56:09.129Z,13.23
2022-11-27T05:58:55.492Z,10.23
2022-11-27T06:01:42.072Z,10.37
2022-11-27T06:04:29.137Z,12.27
2022-11-27T06:07:15.576Z,11.40
2022-11-27T06:10:03.854Z,12.07
2022-11-27T06:12:50.555Z,12.10
2022-11-27T06:15:37.949Z,11.43
2022-11-27T06:18:24.348Z,12.67
2022-11-27T06:21:12.777Z,13.67
2022-11-27T06:23:59.476Z,8.97
2022-11-27T06:26:47.631Z,9.87
2022-11-27T06:29:34.308Z,12.93
2022-11-27T06:32:20.903Z,9.10
2022-11-27T06:35:08.380Z,10.80
2022-11-27T06:37:55.075Z,12.10
2022-11-27T06:40:41.610Z,9.97
2022-11-27T06:43:29.399Z,10.53
2022-11-27T06:46:18.106Z,12.47
2022-11-27T06:49:04.853Z,11.80
2022-11-27T06:51:51.520Z,8.53
2022-11-27T06:54:38.244Z,13.00
2022-11-27T06:57:25.130Z,8.10
2022-11-27T07:00:14.244Z,9.97
2022-11-27T07:03:00.683Z,9.10
2022-11-27T07:05:47.228Z,12.13
2022-11-27T07:08:34.573Z,9.87
2022-11-27T07:11:23.423Z,8.27
2022-11-27T07:14:11.078Z,10.47
2022-11-27T07:16:59.092Z,11.53
2022-11-27T07:19:45.920Z,8.97
2022-11-27T07:22:33.587Z,11.37
2022-11-27T07:25:20.331Z,10.23
2022-11-27T07:28:06.877Z,10.90
2022-11-27T07:30:56.690Z,8.33
2022-11-27T07:33:44.627Z,15.07
2022-11-27T07:36:32.197Z,11.47
2022-11-27T07:39:28.744Z,12.40
2022-11-27T07:42:40.901Z,9.77
2022-11-27T07:45:27.886Z,7.20
2022-11-27T07:48:14.971Z,10.97
2022-11-27T07:51:02.949Z,10.43
2022-11-27T07:53:51.800Z,10.87
2022-11-27T07:56:38.439Z,9.07
2022-11-27T07:59:25.035Z,11.13
2022-11-27T08:02:13.284Z,10.13
2022-11-27T08:04:59.846Z,10.10
2022-11-27T08:07:48.254Z,9.77
2022-11-27T08:10:36.624Z,9.33
2022-11-27T08:13:23.515Z,7.70
2022-11-27T08:16:10.326Z,10.23
2022-11-27T08:18:57.037Z,12.50
2022-11-27T08:21:43.843Z,7.80
2022-11-27T08:24:31.783Z,9.73
2022-11-27T08:27:18.659Z,9.23
2022-11-27T08:30:07.621Z,10.93
2022-11-27T08:32:54.294Z,7.63
2022-11-27T08:35:40.623Z,8.03
2022-11-27T08:38:27.607Z,10.37
2022-11-27T08:41:15.494Z,8.47
2022-11-27T08:44:04.532Z,9.13
2022-11-27T08:46:53.335Z,8.03
2022-11-27T08:49:44.896Z,9.43
2022-11-27T08:52:33.411Z,8.07
2022-11-27T08:55:20.073Z,11.17
2022-11-27T08:58:08.501Z,10.20
2022-11-27T09:00:54.958Z,8.20
2022-11-27T09:03:41.959Z,7.90
2022-11-27T09:06:31.183Z,9.30
2022-11-27T09:09:18.303Z,7.80
2022-11-27T09:12:05.301Z,9.97
2022-11-27T09:14:53.258Z,6.33
2022-11-27T09:17:40.138Z,7.80
2022-11-27T09:20:27.045Z,8.93
2022-11-27T09:23:14.660Z,7.43
2022-11-27T09:26:01.264Z,8.67
2022-11-27T09:28:47.956Z,8.80
2022-11-27T09:31:35.893Z,5.80
2022-11-27T09:34:22.630Z,7.43
2022-11-27T09:37:09.218Z,6.67
2022-11-27T09:39:56.332Z,8.17
2022-11-27T09:42:49.610Z,7.83
2022-11-27T09:45:38.557Z,10.13
2022-11-27T09:48:35.927Z,7.00
2022-11-27T09:51:29.083Z,7.50
2022-11-27T09:54:20.770Z,8.13
2022-11-27T09:57:07.538Z,8.70
2022-11-27T09:59:55.595Z,9.20
2022-11-27T10:02:43.987Z,10.30
2022-11-27T10:05:39.244Z,7.90
2022-11-27T10:08:33.417Z,7.20
2022-11-27T10:11:27.271Z,5.10
2022-11-27T10:14:30.818Z,8.87
2022-11-27T10:17:21.609Z,10.33
2022-11-27T10:20:19.884Z,7.67
2022-11-27T10:23:19.305Z,8.73
2022-11-27T10:26:12.871Z,8.67
2022-11-27T10:29:05.371Z,6.90
2022-11-27T10:31:57.390Z,10.40
2022-11-27T10:34:48.463Z,9.13
2022-11-27T10:37:40.597Z,11.87
2022-11-27T10:40:33.324Z,6.73
2022-11-27T10:43:21.067Z,9.83
2022-11-27T10:46:14.838Z,8.63
2022-11-27T10:49:01.896Z,6.60
2022-11-27T10:51:48.442Z,6.63
2022-11-27T10:54:39.498Z,7.97
2022-11-27T10:57:47.476Z,9.40
2022-11-27T11:00:34.152Z,7.67
2022-11-27T11:03:20.721Z,8.87
2022-11-27T11:06:20.781Z,7.40
2022-11-27T11:09:15.606Z,5.67
2022-11-27T11:12:08.749Z,5.67
2022-11-27T11:14:59.108Z,7.10
2022-11-27T11:17:45.584Z,6.17
2022-11-27T11:20:32.117Z,5.63
2022-11-27T11:23:24.294Z,8.60
2022-11-27T11:26:25.198Z,8.10
2022-11-27T11:29:26.744Z,5.13
2022-11-27T11:32:18.012Z,6.50
2022-11-27T11:35:09.520Z,7.40
2022-11-27T11:37:57.158Z,7.00
2022-11-27T11:40:46.722Z,6.70
2022-11-27T11:43:35.747Z,4.47
2022-11-27T11:46:25.011Z,6.13
2022-11-27T11:49:24.127Z,6.47
2022-11-27T11:52:22.020Z,6.17
2022-11-27T11:55:18.693Z,6.07
2022-11-27T11:58:31.247Z,5.23
2022-11-27T12:01:31.927Z,7.53
2022-11-27T12:04:42.833Z,4.77
2022-11-27T12:07:51.783Z,6.77
2022-11-27T12:10:50.883Z,6.53
2022-11-27T12:13:49.976Z,5.97
2022-11-27T12:16:48.417Z,7.07
2022-11-27T12:19:56.323Z,6.17
2022-11-27T12:23:07.555Z,6.30
2022-11-27T12:26:04.949Z,6.40
2022-11-27T12:29:10.783Z,8.47
2022-11-27T12:32:10.564Z,5.70
2022-11-27T12:35:16.636Z,6.50
2022-11-27T12:38:33.199Z,4.30
2022-11-27T12:41:39.947Z,7.03
2022-11-27T12:44:34.969Z,6.93
2022-11-27T12:47:29.187Z,4.53
2022-11-27T12:50:23.383Z,6.87
2022-11-27T12:53:20.145Z,6.57
2022-11-27T12:56:17.112Z,5.37
2022-11-27T12:59:12.639Z,5.30
2022-11-27T13:02:07.194Z,4.97
2022-11-27T13:04:58.816Z,5.97
2022-11-27T13:07:53.458Z,7.57
2022-11-27T13:10:43.433Z,6.30
2022-11-27T13:13:35.122Z,5.30
2022-11-27T13:16:27.553Z,6.03
2022-11-27T13:19:23.947Z,4.70
2022-11-27T13:22:14.778Z,8.30
2022-11-27T13:25:04.993Z,4.50
2022-11-27T13:27:54.099Z,7.63
2022-11-27T13:30:41.468Z,8.23
2022-11-27T13:33:36.183Z,3.80
2022-11-27T13:36:26.875Z,6.10
2022-11-27T13:39:25.194Z,3.60
2022-11-27T13:42:21.232Z,3.17
2022-11-27T13:45:11.454Z,5.83
2022-11-27T13:47:59.729Z,7.60
2022-11-27T13:50:46.936Z,4.20
2022-11-27T13:53:35.607Z,3.80
2022-11-27T13:56:32.454Z,4.37
2022-11-27T13:59:23.345Z,5.23
2022-11-27T14:02:11.127Z,3.40
2022-11-27T14:04:58.522Z,4.67
2022-11-27T14:07:48.963Z,2.97
2022-11-27T14:10:36.064Z,3.90
2022-11-27T14:13:27.559Z,5.67
2022-11-27T14:16:26.581Z,4.63
2022-11-27T14:19:33.573Z,4.13
2022-11-27T14:22:48.471Z,5.47
2022-11-27T14:25:42.919Z,4.47
2022-11-27T14:31:05.849Z,3.43
2022-11-27T14:34:14.326Z,4.40
2022-11-27T14:36:26.385Z,3.57
2022-11-27T14:39:23.309Z,4.10
2022-11-27T14:42:26.310Z,2.77
2022-11-27T14:45:17.914Z,4.40
2022-11-27T14:48:05.037Z,3.33
2022-11-27T14:50:55.136Z,3.47
2022-11-27T14:53:42.208Z,4.03
2022-11-27T14:56:31.405Z,3.83
2022-11-27T14:59:20.578Z,7.53
2022-11-27T15:02:21.423Z,5.23
2022-11-27T15:05:20.276Z,4.20
2022-11-27T15:08:11.353Z,3.13
2022-11-27T15:11:00.270Z,4.03
2022-11-27T15:13:53.976Z,4.00
2022-11-27T15:16:47.033Z,5.23
2022-11-27T15:19:37.599Z,12.57
2022-11-27T15:22:24.879Z,2.60
2022-11-27T15:25:30.967Z,5.17
2022-11-27T15:28:51.046Z,3.20
2022-11-27T15:31:39.066Z,3.80
2022-11-27T15:34:25.927Z,3.93
2022-11-27T15:37:23.579Z,3.50
2022-11-27T15:40:28.728Z,6.60
2022-11-27T15:43:17.110Z,7.60
2022-11-27T15:46:08.522Z,2.97
2022-11-27T15:48:55.148Z,5.30
2022-11-27T15:51:41.775Z,5.03
2022-11-27T15:54:28.208Z,4.67
2022-11-27T15:57:16.028Z,2.83
2022-11-27T16:00:04.067Z,3.20
2022-11-27T16:02:52.482Z,1.87
2022-11-27T16:05:39.329Z,4.47
2022-11-27T16:08:25.777Z,3.77
2022-11-27T16:11:14.333Z,1.73
2022-11-27T16:14:02.187Z,4.90
2022-11-27T16:16:49.046Z,3.40
2022-11-27T16:19:36.493Z,3.43
2022-11-27T16:22:23.420Z,3.17
2022-11-27T16:25:10.531Z,7.57
2022-11-27T16:28:02.457Z,4.77
2022-11-27T16:30:53.167Z,2.10
2022-11-27T16:33:40.039Z,3.53
2022-11-27T16:36:26.796Z,6.07
2022-11-27T16:39:13.708Z,1.80
2022-11-27T16:42:00.380Z,2.73
2022-11-27T16:44:47.530Z,2.97
2022-11-27T16:47:35.307Z,10.57
2022-11-27T16:50:21.993Z,2.07
2022-11-27T16:53:08.557Z,2.03
2022-11-27T16:55:55.167Z,2.57
2022-11-27T16:58:43.622Z,2.13
2022-11-27T17:01:32.083Z,4.13
2022-11-27T17:04:21.304Z,1.63
2022-11-27T17:07:07.786Z,3.60
2022-11-27T17:09:54.431Z,1.80
2022-11-27T17:12:40.987Z,3.47
2022-11-27T17:15:27.505Z,2.90
2022-11-27T17:18:14.138Z,3.10
2022-11-27T17:21:08.036Z,2.77
2022-11-27T17:23:58.313Z,2.20
2022-11-27T17:26:45.814Z,4.70
2022-11-27T17:29:33.902Z,4.53
2022-11-27T17:32:20.711Z,3.30
2022-11-27T17:35:07.989Z,4.13
2022-11-27T17:37:56.335Z,1.87
2022-11-27T17:40:43.085Z,3.67
2022-11-27T17:43:30.525Z,3.57
2022-11-27T17:46:19.793Z,1.97
2022-11-27T17:49:08.189Z,1.87
2022-11-27T17:51:54.726Z,4.57
2022-11-27T17:54:42.518Z,3.53
2022-11-27T17:57:29.366Z,2.53
2022-11-27T18:00:17.050Z,2.43
2022-11-27T18:03:07.345Z,3.30
2022-11-27T18:05:54.491Z,2.03
2022-11-27T18:08:41.060Z,3.40
2022-11-27T18:11:31.685Z,2.77
2022-11-27T18:14:18.327Z,2.77
2022-11-27T18:17:07.084Z,2.40
2022-11-27T18:19:53.867Z,1.80
2022-11-27T18:22:40.588Z,4.63
2022-11-27T18:25:27.136Z,2.90
2022-11-27T18:28:15.643Z,2.40
2022-11-27T18:31:06.583Z,3.57
2022-11-27T18:33:53.332Z,2.17
2022-11-27T18:36:40.171Z,1.80
2022-11-27T18:39:26.905Z,2.10
2022-11-27T18:42:15.160Z,1.67
2022-11-27T18:45:03.842Z,2.83
2022-11-27T18:47:50.620Z,1.83
2022-11-27T18:50:37.391Z,1.70
2022-11-27T18:53:24.096Z,4.47
2022-11-27T18:56:13.281Z,2.97
2022-11-27T18:59:03.020Z,2.60
2022-11-27T19:01:51.292Z,2.37
2022-11-27T19:04:39.460Z,2.83
2022-11-27T19:07:28.136Z,2.17
2022-11-27T19:10:14.901Z,1.93
2022-11-27T19:13:01.395Z,1.83
2022-11-27T19:15:48.977Z,2.93
2022-11-27T19:18:37.613Z,1.83
2022-11-27T19:21:26.282Z,3.00
2022-11-27T19:24:12.879Z,4.30
2022-11-27T19:26:59.389Z,2.67
2022-11-27T19:29:46.008Z,2.50
2022-11-27T19:32:33.069Z,2.07
2022-11-27T19:35:25.130Z,1.70
2022-11-27T19:38:11.848Z,2.80
2022-11-27T19:40:58.367Z,3.27
2022-11-27T19:43:45.200Z,2.60
2022-11-27T19:46:33.416Z,1.90
2022-11-27T19:49:21.345Z,3.17
2022-11-27T19:52:09.715Z,2.87
2022-11-27T19:54:56.415Z,2.40
2022-11-27T19:57:42.820Z,3.47
2022-11-27T20:00:29.720Z,4.07
2022-11-27T20:03:16.564Z,2.43
2022-11-27T20:06:04.613Z,1.93
2022-11-27T20:08:54.140Z,2.83
2022-11-27T20:11:40.930Z,3.47
2022-11-27T20:14:27.698Z,4.13
2022-11-27T20:17:14.515Z,3.27
2022-11-27T20:20:01.245Z,2.80
2022-11-27T20:22:48.201Z,2.50
2022-11-27T20:25:36.504Z,2.97
2022-11-27T20:28:23.257Z,2.77
2022-11-27T20:31:15.542Z,2.60
2022-11-27T20:34:04.913Z,3.07
2022-11-27T20:36:51.667Z,4.87
2022-11-27T20:39:38.159Z,4.70
2022-11-27T20:42:26.058Z,2.57
2022-11-27T20:45:17.518Z,3.47
2022-11-27T20:48:07.322Z,2.23
2022-11-27T20:50:54.170Z,2.00
2022-11-27T20:53:41.184Z,3.03
2022-11-27T20:56:28.664Z,3.50
2022-11-27T20:59:16.669Z,3.47
2022-11-27T21:02:05.394Z,2.03
2022-11-27T21:04:52.272Z,2.23
2022-11-27T21:07:39.583Z,3.10
2022-11-27T21:10:26.313Z,5.53
2022-11-27T21:13:12.847Z,3.30
2022-11-27T21:16:00.891Z,1.90
2022-11-27T21:18:47.733Z,4.30
2022-11-27T21:21:35.186Z,2.60
2022-11-27T21:24:22.879Z,3.20
2022-11-27T21:27:10.013Z,3.60
2022-11-27T21:29:56.681Z,6.67
2022-11-27T21:32:45.381Z,2.00
2022-11-27T21:35:33.987Z,1.93
2022-11-27T21:38:24.044Z,2.90
2022-11-27T21:41:13.711Z,2.00
2022-11-27T21:44:02.076Z,3.37
2022-11-27T21:46:48.847Z,3.70
2022-11-27T21:49:36.742Z,6.40
2022-11-27T21:52:23.563Z,4.67
2022-11-27T21:55:12.137Z,2.80
2022-11-27T21:57:59.495Z,2.60
2022-11-27T22:00:46.556Z,2.60
2022-11-27T22:03:33.382Z,3.07
2022-11-27T22:06:21.665Z,4.90
2022-11-27T22:09:14.710Z,3.07
2022-11-27T22:12:02.311Z,3.13
2022-11-27T22:14:50.804Z,5.00
2022-11-27T22:17:37.513Z,4.63
2022-11-27T22:20:24.265Z,5.03
2022-11-27T22:23:12.370Z,2.87
2022-11-27T22:26:01.823Z,3.80
2022-11-27T22:28:48.927Z,6.87
2022-11-27T22:31:35.343Z,3.20
2022-11-27T22:34:21.890Z,5.13
2022-11-27T22:37:08.740Z,3.37
2022-11-27T22:39:56.824Z,5.33
2022-11-27T22:42:43.549Z,3.90
2022-11-27T22:45:30.237Z,4.90
2022-11-27T22:48:16.628Z,3.17
2022-11-27T22:51:03.113Z,3.27
2022-11-27T22:53:49.696Z,2.67
2022-11-27T22:56:37.744Z,3.07
2022-11-27T22:59:33.217Z,4.20
2022-11-27T23:02:20.543Z,2.53
2022-11-27T23:05:07.803Z,3.13
2022-11-27T23:07:54.378Z,2.70
2022-11-27T23:10:41.243Z,2.90
2022-11-27T23:13:29.023Z,3.60
2022-11-27T23:16:16.016Z,2.50
2022-11-27T23:19:02.721Z,3.27
2022-11-27T23:21:49.183Z,2.60
2022-11-27T23:24:35.714Z,3.43
2022-11-27T23:27:22.217Z,4.70
2022-11-27T23:30:11.286Z,2.27
2022-11-27T23:32:57.680Z,3.10
2022-11-27T23:35:44.095Z,3.77
2022-11-27T23:38:31.502Z,4.60
2022-11-27T23:41:20.573Z,2.80
2022-11-27T23:44:07.067Z,3.13
2022-11-27T23:46:54.881Z,2.97
2022-11-27T23:49:43.210Z,2.30
2022-11-27T23:52:29.826Z,2.77
2022-11-27T23:55:16.533Z,3.17
2022-11-27T23:58:03.370Z,2.30
